Arcadia, Oregon
Current Conditions -  °F | °C
As of 4:36 AM on Saturday 20 Dec 2014 (Local Time) from KONO Reporting Station
Light Rain Light Rain  
Wind Chill: 35°   Ceiling: 1900
Heat Index: 35°   Visibility: 0.5mi
Dew Point: 34°   Wind: 0mph
Humidity: 96%   Direction: NA
Pressure: 30.06"   Gusts: NA
Location:  43.754°N, 117.202°W
Report Text: KONO 201136Z AUTO 00000KT 1/2SM -RA FG BKN019 OVC040 02/01 A3006 RMK AO2 RAB02 P0000 T00170011
Loading
Personal Weather Stations






























Interactive Weather Map New forecast layout! Learn more

10-Day Weather Forecast

Advertisements
Track Severe Weather on mobile